sensor_id;sensor_type;location;lat;lon;timestamp;P1;durP1;ratioP1;P2;durP2;ratioP2
803;SDS011;25687;49.976;8.240;2023-12-22T00:01:05;0.67;;;0.67;;
803;SDS011;25687;49.976;8.240;2023-12-22T00:03:30;0.50;;;0.50;;
803;SDS011;25687;49.976;8.240;2023-12-22T00:05:55;0.57;;;0.57;;
803;SDS011;25687;49.976;8.240;2023-12-22T00:08:20;0.30;;;0.30;;
803;SDS011;25687;49.976;8.240;2023-12-22T00:10:46;0.50;;;0.50;;
803;SDS011;25687;49.976;8.240;2023-12-22T00:13:12;2.00;;;0.80;;
803;SDS011;25687;49.976;8.240;2023-12-22T00:15:37;0.90;;;0.60;;
803;SDS011;25687;49.976;8.240;2023-12-22T00:18:03;1.30;;;0.73;;
803;SDS011;25687;49.976;8.240;2023-12-22T00:20:28;1.60;;;0.50;;
803;SDS011;25687;49.976;8.240;2023-12-22T00:22:53;0.60;;;0.40;;
803;SDS011;25687;49.976;8.240;2023-12-22T00:25:19;0.63;;;0.50;;
803;SDS011;25687;49.976;8.240;2023-12-22T00:27:44;0.93;;;0.70;;
803;SDS011;25687;49.976;8.240;2023-12-22T00:30:09;1.63;;;0.50;;
803;SDS011;25687;49.976;8.240;2023-12-22T00:32:35;0.80;;;0.70;;
803;SDS011;25687;49.976;8.240;2023-12-22T00:35:01;0.70;;;0.70;;
803;SDS011;25687;49.976;8.240;2023-12-22T00:37:27;2.93;;;0.60;;
803;SDS011;25687;49.976;8.240;2023-12-22T00:39:52;0.60;;;0.60;;
803;SDS011;25687;49.976;8.240;2023-12-22T00:42:17;0.83;;;0.83;;
803;SDS011;25687;49.976;8.240;2023-12-22T00:44:42;2.50;;;0.70;;
803;SDS011;25687;49.976;8.240;2023-12-22T00:47:08;0.70;;;0.60;;
803;SDS011;25687;49.976;8.240;2023-12-22T00:49:33;1.63;;;0.70;;
803;SDS011;25687;49.976;8.240;2023-12-22T00:51:58;2.10;;;0.80;;
803;SDS011;25687;49.976;8.240;2023-12-22T00:54:23;1.77;;;1.00;;
803;SDS011;25687;49.976;8.240;2023-12-22T00:56:50;2.07;;;0.77;;
803;SDS011;25687;49.976;8.240;2023-12-22T00:59:15;0.93;;;0.57;;
803;SDS011;25687;49.976;8.240;2023-12-22T01:01:40;1.73;;;0.70;;
803;SDS011;25687;49.976;8.240;2023-12-22T01:04:06;1.23;;;0.87;;
803;SDS011;25687;49.976;8.240;2023-12-22T01:06:31;1.17;;;0.70;;
803;SDS011;25687;49.976;8.240;2023-12-22T01:08:56;2.17;;;0.83;;
803;SDS011;25687;49.976;8.240;2023-12-22T01:11:21;1.33;;;0.80;;
803;SDS011;25687;49.976;8.240;2023-12-22T01:13:47;2.00;;;0.87;;
803;SDS011;25687;49.976;8.240;2023-12-22T01:16:12;1.73;;;0.90;;
803;SDS011;25687;49.976;8.240;2023-12-22T01:18:37;0.73;;;0.50;;
803;SDS011;25687;49.976;8.240;2023-12-22T01:21:05;0.70;;;0.70;;
803;SDS011;25687;49.976;8.240;2023-12-22T01:23:30;1.03;;;0.73;;
803;SDS011;25687;49.976;8.240;2023-12-22T01:25:55;0.53;;;0.53;;
803;SDS011;25687;49.976;8.240;2023-12-22T01:28:21;1.97;;;0.80;;
803;SDS011;25687;49.976;8.240;2023-12-22T01:30:46;1.40;;;0.90;;
803;SDS011;25687;49.976;8.240;2023-12-22T01:33:12;0.70;;;0.70;;
803;SDS011;25687;49.976;8.240;2023-12-22T01:35:37;1.43;;;0.80;;
803;SDS011;25687;49.976;8.240;2023-12-22T01:38:03;0.93;;;0.70;;
803;SDS011;25687;49.976;8.240;2023-12-22T01:40:28;1.10;;;0.60;;
803;SDS011;25687;49.976;8.240;2023-12-22T01:42:53;2.10;;;1.07;;
803;SDS011;25687;49.976;8.240;2023-12-22T01:45:18;0.80;;;0.80;;
803;SDS011;25687;49.976;8.240;2023-12-22T01:47:44;1.33;;;1.00;;
803;SDS011;25687;49.976;8.240;2023-12-22T01:50:11;3.40;;;1.00;;
803;SDS011;25687;49.976;8.240;2023-12-22T01:52:38;1.73;;;0.60;;
803;SDS011;25687;49.976;8.240;2023-12-22T01:55:06;1.73;;;0.70;;
803;SDS011;25687;49.976;8.240;2023-12-22T01:57:35;1.53;;;0.60;;
803;SDS011;25687;49.976;8.240;2023-12-22T02:00:01;2.17;;;0.80;;
803;SDS011;25687;49.976;8.240;2023-12-22T02:02:27;1.83;;;1.00;;
803;SDS011;25687;49.976;8.240;2023-12-22T02:04:53;0.90;;;0.70;;
803;SDS011;25687;49.976;8.240;2023-12-22T02:07:18;1.13;;;0.60;;
803;SDS011;25687;49.976;8.240;2023-12-22T02:09:44;2.00;;;1.07;;
803;SDS011;25687;49.976;8.240;2023-12-22T02:12:09;0.90;;;0.70;;
803;SDS011;25687;49.976;8.240;2023-12-22T02:14:35;1.47;;;0.73;;
803;SDS011;25687;49.976;8.240;2023-12-22T02:19:50;1.47;;;0.87;;
803;SDS011;25687;49.976;8.240;2023-12-22T02:22:16;1.23;;;0.83;;
803;SDS011;25687;49.976;8.240;2023-12-22T02:24:41;0.60;;;0.60;;
803;SDS011;25687;49.976;8.240;2023-12-22T02:27:14;3.50;;;1.20;;
803;SDS011;25687;49.976;8.240;2023-12-22T02:32:30;2.10;;;0.70;;
803;SDS011;25687;49.976;8.240;2023-12-22T02:34:59;1.60;;;0.60;;
803;SDS011;25687;49.976;8.240;2023-12-22T02:37:29;2.70;;;1.00;;
803;SDS011;25687;49.976;8.240;2023-12-22T02:39:57;3.03;;;0.90;;
803;SDS011;25687;49.976;8.240;2023-12-22T02:42:23;1.00;;;0.90;;
803;SDS011;25687;49.976;8.240;2023-12-22T02:44:54;1.30;;;0.80;;
803;SDS011;25687;49.976;8.240;2023-12-22T02:47:20;2.33;;;0.77;;
803;SDS011;25687;49.976;8.240;2023-12-22T02:49:46;3.60;;;0.83;;
803;SDS011;25687;49.976;8.240;2023-12-22T02:52:11;1.80;;;1.33;;
803;SDS011;25687;49.976;8.240;2023-12-22T02:54:36;1.70;;;0.90;;
803;SDS011;25687;49.976;8.240;2023-12-22T02:57:04;1.90;;;0.80;;
803;SDS011;25687;49.976;8.240;2023-12-22T02:59:30;2.33;;;1.00;;
803;SDS011;25687;49.976;8.240;2023-12-22T03:01:55;1.97;;;1.00;;
803;SDS011;25687;49.976;8.240;2023-12-22T03:04:20;6.60;;;1.43;;
803;SDS011;25687;49.976;8.240;2023-12-22T03:06:45;2.97;;;1.17;;
803;SDS011;25687;49.976;8.240;2023-12-22T03:09:11;4.07;;;1.10;;
803;SDS011;25687;49.976;8.240;2023-12-22T03:11:36;2.33;;;1.10;;
803;SDS011;25687;49.976;8.240;2023-12-22T03:14:01;2.97;;;1.37;;
803;SDS011;25687;49.976;8.240;2023-12-22T03:16:27;3.57;;;1.43;;
803;SDS011;25687;49.976;8.240;2023-12-22T03:18:52;4.17;;;1.77;;
803;SDS011;25687;49.976;8.240;2023-12-22T03:21:18;5.17;;;1.70;;
803;SDS011;25687;49.976;8.240;2023-12-22T03:23:44;4.10;;;1.40;;
803;SDS011;25687;49.976;8.240;2023-12-22T03:26:09;2.23;;;1.00;;
803;SDS011;25687;49.976;8.240;2023-12-22T03:28:34;2.97;;;1.07;;
803;SDS011;25687;49.976;8.240;2023-12-22T03:31:00;3.43;;;1.30;;
803;SDS011;25687;49.976;8.240;2023-12-22T03:33:25;4.40;;;1.30;;
803;SDS011;25687;49.976;8.240;2023-12-22T03:35:50;3.93;;;1.73;;
803;SDS011;25687;49.976;8.240;2023-12-22T03:38:15;3.07;;;1.33;;
803;SDS011;25687;49.976;8.240;2023-12-22T03:40:41;2.67;;;1.13;;
803;SDS011;25687;49.976;8.240;2023-12-22T03:43:06;2.67;;;1.13;;
803;SDS011;25687;49.976;8.240;2023-12-22T03:45:31;3.17;;;1.10;;
803;SDS011;25687;49.976;8.240;2023-12-22T03:47:56;1.83;;;1.10;;
803;SDS011;25687;49.976;8.240;2023-12-22T03:50:22;2.67;;;1.07;;
803;SDS011;25687;49.976;8.240;2023-12-22T03:52:47;2.43;;;0.93;;
803;SDS011;25687;49.976;8.240;2023-12-22T03:55:12;3.70;;;1.30;;
803;SDS011;25687;49.976;8.240;2023-12-22T03:57:37;4.13;;;1.00;;
803;SDS011;25687;49.976;8.240;2023-12-22T04:00:03;4.00;;;1.33;;
803;SDS011;25687;49.976;8.240;2023-12-22T04:02:29;6.37;;;1.60;;
803;SDS011;25687;49.976;8.240;2023-12-22T04:04:54;4.13;;;1.20;;
803;SDS011;25687;49.976;8.240;2023-12-22T04:07:19;5.70;;;1.43;;
803;SDS011;25687;49.976;8.240;2023-12-22T04:09:45;2.47;;;1.67;;
803;SDS011;25687;49.976;8.240;2023-12-22T04:12:10;4.33;;;1.40;;
803;SDS011;25687;49.976;8.240;2023-12-22T04:14:35;4.83;;;1.20;;
803;SDS011;25687;49.976;8.240;2023-12-22T04:17:00;7.20;;;1.80;;
803;SDS011;25687;49.976;8.240;2023-12-22T04:19:26;1.77;;;0.90;;
803;SDS011;25687;49.976;8.240;2023-12-22T04:21:51;3.87;;;1.07;;
803;SDS011;25687;49.976;8.240;2023-12-22T04:24:17;1.60;;;0.90;;
803;SDS011;25687;49.976;8.240;2023-12-22T04:26:42;3.30;;;1.77;;
803;SDS011;25687;49.976;8.240;2023-12-22T04:29:07;3.50;;;1.10;;
803;SDS011;25687;49.976;8.240;2023-12-22T04:31:32;5.53;;;1.80;;
803;SDS011;25687;49.976;8.240;2023-12-22T04:33:58;3.50;;;1.20;;
803;SDS011;25687;49.976;8.240;2023-12-22T04:36:23;4.50;;;1.17;;
803;SDS011;25687;49.976;8.240;2023-12-22T04:38:48;3.23;;;1.10;;
803;SDS011;25687;49.976;8.240;2023-12-22T04:41:13;1.77;;;0.83;;
803;SDS011;25687;49.976;8.240;2023-12-22T04:43:39;2.30;;;0.80;;
803;SDS011;25687;49.976;8.240;2023-12-22T04:46:04;2.23;;;1.00;;
803;SDS011;25687;49.976;8.240;2023-12-22T04:48:29;3.90;;;1.27;;
803;SDS011;25687;49.976;8.240;2023-12-22T04:50:54;4.03;;;1.30;;
803;SDS011;25687;49.976;8.240;2023-12-22T04:53:20;4.50;;;1.33;;
803;SDS011;25687;49.976;8.240;2023-12-22T04:55:45;2.70;;;1.47;;
803;SDS011;25687;49.976;8.240;2023-12-22T04:58:11;5.33;;;1.23;;
803;SDS011;25687;49.976;8.240;2023-12-22T05:00:36;3.10;;;1.47;;
803;SDS011;25687;49.976;8.240;2023-12-22T05:03:01;4.73;;;1.43;;
803;SDS011;25687;49.976;8.240;2023-12-22T05:05:27;2.93;;;1.00;;
803;SDS011;25687;49.976;8.240;2023-12-22T05:07:52;6.73;;;1.40;;
803;SDS011;25687;49.976;8.240;2023-12-22T05:10:17;2.90;;;1.30;;
803;SDS011;25687;49.976;8.240;2023-12-22T05:12:42;5.40;;;1.43;;
803;SDS011;25687;49.976;8.240;2023-12-22T05:15:08;5.03;;;1.63;;
803;SDS011;25687;49.976;8.240;2023-12-22T05:17:33;3.23;;;1.67;;
803;SDS011;25687;49.976;8.240;2023-12-22T05:19:59;3.93;;;1.17;;
803;SDS011;25687;49.976;8.240;2023-12-22T05:22:24;5.90;;;1.27;;
803;SDS011;25687;49.976;8.240;2023-12-22T05:24:49;2.57;;;1.30;;
803;SDS011;25687;49.976;8.240;2023-12-22T05:27:14;4.43;;;1.80;;
803;SDS011;25687;49.976;8.240;2023-12-22T05:29:40;2.70;;;1.13;;
803;SDS011;25687;49.976;8.240;2023-12-22T05:32:05;6.67;;;1.50;;
803;SDS011;25687;49.976;8.240;2023-12-22T05:34:31;2.33;;;1.10;;
803;SDS011;25687;49.976;8.240;2023-12-22T05:36:56;1.97;;;0.83;;
803;SDS011;25687;49.976;8.240;2023-12-22T05:39:22;5.83;;;1.30;;
803;SDS011;25687;49.976;8.240;2023-12-22T05:41:47;1.73;;;1.17;;
803;SDS011;25687;49.976;8.240;2023-12-22T05:44:12;6.40;;;1.10;;
803;SDS011;25687;49.976;8.240;2023-12-22T05:46:37;3.87;;;1.23;;
803;SDS011;25687;49.976;8.240;2023-12-22T05:49:03;4.87;;;1.10;;
803;SDS011;25687;49.976;8.240;2023-12-22T05:51:29;1.80;;;1.13;;
803;SDS011;25687;49.976;8.240;2023-12-22T05:53:54;3.53;;;1.33;;
803;SDS011;25687;49.976;8.240;2023-12-22T05:56:19;4.67;;;1.50;;
803;SDS011;25687;49.976;8.240;2023-12-22T05:58:46;7.77;;;1.80;;
803;SDS011;25687;49.976;8.240;2023-12-22T06:01:18;4.97;;;2.07;;
803;SDS011;25687;49.976;8.240;2023-12-22T06:03:46;2.73;;;1.57;;
803;SDS011;25687;49.976;8.240;2023-12-22T06:06:13;5.83;;;1.63;;
803;SDS011;25687;49.976;8.240;2023-12-22T06:08:38;5.33;;;1.90;;
803;SDS011;25687;49.976;8.240;2023-12-22T06:11:04;5.47;;;2.10;;
803;SDS011;25687;49.976;8.240;2023-12-22T06:13:30;6.30;;;1.63;;
803;SDS011;25687;49.976;8.240;2023-12-22T06:15:57;1.70;;;1.10;;
803;SDS011;25687;49.976;8.240;2023-12-22T06:18:22;4.63;;;1.43;;
803;SDS011;25687;49.976;8.240;2023-12-22T06:20:47;3.17;;;1.33;;
803;SDS011;25687;49.976;8.240;2023-12-22T06:23:13;5.00;;;1.80;;
803;SDS011;25687;49.976;8.240;2023-12-22T06:25:38;7.10;;;1.93;;
803;SDS011;25687;49.976;8.240;2023-12-22T06:28:03;4.10;;;1.67;;
803;SDS011;25687;49.976;8.240;2023-12-22T06:30:29;4.50;;;1.50;;
803;SDS011;25687;49.976;8.240;2023-12-22T06:32:55;4.70;;;1.70;;
803;SDS011;25687;49.976;8.240;2023-12-22T06:35:20;5.83;;;1.93;;
803;SDS011;25687;49.976;8.240;2023-12-22T06:37:48;7.60;;;1.90;;
803;SDS011;25687;49.976;8.240;2023-12-22T06:40:14;6.23;;;1.97;;
803;SDS011;25687;49.976;8.240;2023-12-22T06:42:40;8.13;;;2.00;;
803;SDS011;25687;49.976;8.240;2023-12-22T06:45:05;7.77;;;2.20;;
803;SDS011;25687;49.976;8.240;2023-12-22T06:47:31;5.37;;;1.90;;
803;SDS011;25687;49.976;8.240;2023-12-22T06:49:56;12.23;;;2.27;;
803;SDS011;25687;49.976;8.240;2023-12-22T06:52:21;6.80;;;2.13;;
803;SDS011;25687;49.976;8.240;2023-12-22T06:54:46;5.87;;;1.87;;
803;SDS011;25687;49.976;8.240;2023-12-22T06:57:12;13.80;;;2.47;;
803;SDS011;25687;49.976;8.240;2023-12-22T06:59:38;7.37;;;2.27;;
803;SDS011;25687;49.976;8.240;2023-12-22T07:02:03;6.20;;;1.70;;
803;SDS011;25687;49.976;8.240;2023-12-22T07:04:29;10.13;;;2.47;;
803;SDS011;25687;49.976;8.240;2023-12-22T07:06:54;9.87;;;2.23;;
803;SDS011;25687;49.976;8.240;2023-12-22T07:11:51;6.37;;;2.10;;
803;SDS011;25687;49.976;8.240;2023-12-22T07:14:18;6.77;;;2.50;;
803;SDS011;25687;49.976;8.240;2023-12-22T07:16:43;6.03;;;2.20;;
803;SDS011;25687;49.976;8.240;2023-12-22T07:19:08;9.67;;;2.33;;
803;SDS011;25687;49.976;8.240;2023-12-22T07:21:34;10.97;;;2.10;;
803;SDS011;25687;49.976;8.240;2023-12-22T07:23:59;9.50;;;2.27;;
803;SDS011;25687;49.976;8.240;2023-12-22T07:26:25;9.37;;;2.53;;
803;SDS011;25687;49.976;8.240;2023-12-22T07:28:51;7.00;;;1.93;;
803;SDS011;25687;49.976;8.240;2023-12-22T07:31:19;5.33;;;1.70;;
803;SDS011;25687;49.976;8.240;2023-12-22T07:33:45;3.90;;;1.73;;
803;SDS011;25687;49.976;8.240;2023-12-22T07:36:10;7.47;;;2.00;;
803;SDS011;25687;49.976;8.240;2023-12-22T07:38:36;4.70;;;1.90;;
803;SDS011;25687;49.976;8.240;2023-12-22T07:41:01;7.23;;;2.00;;
803;SDS011;25687;49.976;8.240;2023-12-22T07:43:26;4.27;;;1.57;;
803;SDS011;25687;49.976;8.240;2023-12-22T07:45:54;9.53;;;2.40;;
803;SDS011;25687;49.976;8.240;2023-12-22T07:48:19;4.87;;;1.50;;
803;SDS011;25687;49.976;8.240;2023-12-22T07:50:44;4.17;;;1.40;;
803;SDS011;25687;49.976;8.240;2023-12-22T07:53:10;8.03;;;1.83;;
803;SDS011;25687;49.976;8.240;2023-12-22T07:55:36;4.17;;;1.50;;
803;SDS011;25687;49.976;8.240;2023-12-22T07:58:03;4.33;;;1.60;;
803;SDS011;25687;49.976;8.240;2023-12-22T08:00:29;7.40;;;1.87;;
803;SDS011;25687;49.976;8.240;2023-12-22T08:02:54;5.80;;;1.83;;
803;SDS011;25687;49.976;8.240;2023-12-22T08:05:19;5.03;;;1.87;;
803;SDS011;25687;49.976;8.240;2023-12-22T08:07:44;4.53;;;1.20;;
803;SDS011;25687;49.976;8.240;2023-12-22T08:10:10;8.87;;;1.73;;
803;SDS011;25687;49.976;8.240;2023-12-22T08:12:36;4.63;;;1.33;;
803;SDS011;25687;49.976;8.240;2023-12-22T08:15:02;10.20;;;2.20;;
803;SDS011;25687;49.976;8.240;2023-12-22T08:17:28;6.90;;;1.50;;
803;SDS011;25687;49.976;8.240;2023-12-22T08:19:54;5.23;;;1.63;;
803;SDS011;25687;49.976;8.240;2023-12-22T08:22:19;5.70;;;1.70;;
803;SDS011;25687;49.976;8.240;2023-12-22T08:24:44;3.47;;;1.80;;
803;SDS011;25687;49.976;8.240;2023-12-22T08:27:10;7.43;;;2.00;;
803;SDS011;25687;49.976;8.240;2023-12-22T08:29:35;7.50;;;1.90;;
803;SDS011;25687;49.976;8.240;2023-12-22T08:32:01;5.37;;;2.00;;
803;SDS011;25687;49.976;8.240;2023-12-22T08:34:26;5.23;;;1.77;;
803;SDS011;25687;49.976;8.240;2023-12-22T08:36:52;7.00;;;2.30;;
803;SDS011;25687;49.976;8.240;2023-12-22T08:39:18;5.97;;;1.77;;
803;SDS011;25687;49.976;8.240;2023-12-22T08:41:43;4.03;;;1.80;;
803;SDS011;25687;49.976;8.240;2023-12-22T08:44:08;6.37;;;2.00;;
803;SDS011;25687;49.976;8.240;2023-12-22T08:46:34;5.10;;;1.70;;
803;SDS011;25687;49.976;8.240;2023-12-22T08:49:00;4.57;;;1.73;;
803;SDS011;25687;49.976;8.240;2023-12-22T08:51:26;5.70;;;1.47;;
803;SDS011;25687;49.976;8.240;2023-12-22T08:53:53;5.23;;;1.50;;
803;SDS011;25687;49.976;8.240;2023-12-22T08:56:19;5.37;;;1.70;;
803;SDS011;25687;49.976;8.240;2023-12-22T08:58:46;8.23;;;2.03;;
803;SDS011;25687;49.976;8.240;2023-12-22T09:01:15;2.93;;;1.20;;
803;SDS011;25687;49.976;8.240;2023-12-22T09:03:41;2.90;;;1.47;;
803;SDS011;25687;49.976;8.240;2023-12-22T09:06:13;5.93;;;1.70;;
803;SDS011;25687;49.976;8.240;2023-12-22T09:08:39;5.43;;;1.40;;
803;SDS011;25687;49.976;8.240;2023-12-22T09:11:04;5.83;;;1.87;;
803;SDS011;25687;49.976;8.240;2023-12-22T09:13:30;6.47;;;1.70;;
803;SDS011;25687;49.976;8.240;2023-12-22T09:15:56;3.57;;;2.07;;
803;SDS011;25687;49.976;8.240;2023-12-22T09:18:22;7.03;;;2.60;;
803;SDS011;25687;49.976;8.240;2023-12-22T09:20:48;11.83;;;2.57;;
803;SDS011;25687;49.976;8.240;2023-12-22T09:23:13;9.07;;;2.27;;
803;SDS011;25687;49.976;8.240;2023-12-22T09:25:39;4.53;;;1.90;;
803;SDS011;25687;49.976;8.240;2023-12-22T09:28:04;7.00;;;2.30;;
803;SDS011;25687;49.976;8.240;2023-12-22T09:30:29;7.03;;;2.40;;
803;SDS011;25687;49.976;8.240;2023-12-22T09:32:55;7.17;;;2.27;;
803;SDS011;25687;49.976;8.240;2023-12-22T09:35:20;6.90;;;2.67;;
803;SDS011;25687;49.976;8.240;2023-12-22T09:37:47;9.57;;;2.40;;
803;SDS011;25687;49.976;8.240;2023-12-22T09:40:12;7.93;;;2.40;;
803;SDS011;25687;49.976;8.240;2023-12-22T09:42:39;8.90;;;2.37;;
803;SDS011;25687;49.976;8.240;2023-12-22T09:45:06;9.90;;;2.30;;
803;SDS011;25687;49.976;8.240;2023-12-22T09:47:33;11.60;;;3.03;;
803;SDS011;25687;49.976;8.240;2023-12-22T09:50:00;8.47;;;2.73;;
803;SDS011;25687;49.976;8.240;2023-12-22T09:52:26;6.33;;;2.27;;
803;SDS011;25687;49.976;8.240;2023-12-22T09:54:54;10.47;;;2.63;;
803;SDS011;25687;49.976;8.240;2023-12-22T09:57:21;8.73;;;2.30;;
803;SDS011;25687;49.976;8.240;2023-12-22T09:59:49;15.40;;;3.13;;
803;SDS011;25687;49.976;8.240;2023-12-22T10:02:17;7.97;;;3.63;;
803;SDS011;25687;49.976;8.240;2023-12-22T10:04:42;9.83;;;2.53;;
803;SDS011;25687;49.976;8.240;2023-12-22T10:07:07;13.63;;;3.67;;
803;SDS011;25687;49.976;8.240;2023-12-22T10:09:35;10.77;;;2.80;;
803;SDS011;25687;49.976;8.240;2023-12-22T10:12:01;14.30;;;3.30;;
803;SDS011;25687;49.976;8.240;2023-12-22T10:14:29;12.73;;;3.10;;
803;SDS011;25687;49.976;8.240;2023-12-22T10:16:56;12.00;;;3.20;;
803;SDS011;25687;49.976;8.240;2023-12-22T10:19:22;9.97;;;2.90;;
803;SDS011;25687;49.976;8.240;2023-12-22T10:21:48;9.20;;;3.27;;
803;SDS011;25687;49.976;8.240;2023-12-22T10:27:07;10.17;;;3.20;;
803;SDS011;25687;49.976;8.240;2023-12-22T10:29:32;11.60;;;2.97;;
803;SDS011;25687;49.976;8.240;2023-12-22T10:31:57;7.87;;;3.13;;
803;SDS011;25687;49.976;8.240;2023-12-22T10:34:25;11.43;;;3.10;;
803;SDS011;25687;49.976;8.240;2023-12-22T10:36:50;9.30;;;3.03;;
803;SDS011;25687;49.976;8.240;2023-12-22T10:39:15;15.43;;;3.30;;
803;SDS011;25687;49.976;8.240;2023-12-22T10:41:41;10.60;;;2.90;;
803;SDS011;25687;49.976;8.240;2023-12-22T10:44:06;10.13;;;2.77;;
803;SDS011;25687;49.976;8.240;2023-12-22T10:46:31;8.33;;;2.80;;
803;SDS011;25687;49.976;8.240;2023-12-22T10:48:59;13.17;;;3.13;;
803;SDS011;25687;49.976;8.240;2023-12-22T10:51:24;7.43;;;2.37;;
803;SDS011;25687;49.976;8.240;2023-12-22T10:53:50;10.87;;;2.50;;
803;SDS011;25687;49.976;8.240;2023-12-22T10:56:16;7.77;;;2.47;;
803;SDS011;25687;49.976;8.240;2023-12-22T10:58:42;9.87;;;2.80;;
803;SDS011;25687;49.976;8.240;2023-12-22T11:01:07;9.27;;;3.43;;
803;SDS011;25687;49.976;8.240;2023-12-22T11:03:35;7.43;;;2.93;;
803;SDS011;25687;49.976;8.240;2023-12-22T11:06:04;9.93;;;2.80;;
803;SDS011;25687;49.976;8.240;2023-12-22T11:08:31;7.73;;;2.27;;
803;SDS011;25687;49.976;8.240;2023-12-22T11:11:00;11.33;;;2.67;;
803;SDS011;25687;49.976;8.240;2023-12-22T11:13:35;11.03;;;3.23;;
803;SDS011;25687;49.976;8.240;2023-12-22T11:16:02;8.87;;;2.83;;
803;SDS011;25687;49.976;8.240;2023-12-22T11:18:28;9.33;;;1.83;;
803;SDS011;25687;49.976;8.240;2023-12-22T11:20:54;6.63;;;2.73;;
803;SDS011;25687;49.976;8.240;2023-12-22T11:23:21;7.83;;;2.80;;
803;SDS011;25687;49.976;8.240;2023-12-22T11:25:48;8.77;;;2.97;;
803;SDS011;25687;49.976;8.240;2023-12-22T11:28:19;7.70;;;2.43;;
803;SDS011;25687;49.976;8.240;2023-12-22T11:30:46;6.50;;;2.00;;
803;SDS011;25687;49.976;8.240;2023-12-22T11:33:15;10.80;;;3.43;;
803;SDS011;25687;49.976;8.240;2023-12-22T11:35:41;8.60;;;2.60;;
803;SDS011;25687;49.976;8.240;2023-12-22T11:38:07;9.07;;;2.37;;
803;SDS011;25687;49.976;8.240;2023-12-22T11:40:37;7.83;;;2.10;;
803;SDS011;25687;49.976;8.240;2023-12-22T11:43:04;5.43;;;1.97;;
803;SDS011;25687;49.976;8.240;2023-12-22T11:45:30;6.63;;;1.60;;
803;SDS011;25687;49.976;8.240;2023-12-22T11:47:56;5.40;;;2.07;;
803;SDS011;25687;49.976;8.240;2023-12-22T11:50:29;5.33;;;1.60;;
803;SDS011;25687;49.976;8.240;2023-12-22T11:52:55;5.87;;;2.43;;
803;SDS011;25687;49.976;8.240;2023-12-22T11:58:32;4.93;;;1.63;;
803;SDS011;25687;49.976;8.240;2023-12-22T12:01:24;5.83;;;1.70;;
803;SDS011;25687;49.976;8.240;2023-12-22T12:03:54;3.17;;;1.43;;
803;SDS011;25687;49.976;8.240;2023-12-22T12:06:22;4.37;;;1.60;;
803;SDS011;25687;49.976;8.240;2023-12-22T12:08:56;3.70;;;1.57;;
803;SDS011;25687;49.976;8.240;2023-12-22T12:11:23;4.97;;;2.00;;
803;SDS011;25687;49.976;8.240;2023-12-22T12:13:49;4.57;;;1.67;;
803;SDS011;25687;49.976;8.240;2023-12-22T12:16:18;5.80;;;2.10;;
803;SDS011;25687;49.976;8.240;2023-12-22T12:18:46;6.00;;;2.23;;
803;SDS011;25687;49.976;8.240;2023-12-22T12:21:12;6.63;;;2.00;;
803;SDS011;25687;49.976;8.240;2023-12-22T12:23:37;5.87;;;2.00;;
803;SDS011;25687;49.976;8.240;2023-12-22T12:26:06;6.97;;;2.67;;
803;SDS011;25687;49.976;8.240;2023-12-22T12:28:33;7.00;;;1.80;;
803;SDS011;25687;49.976;8.240;2023-12-22T12:31:02;3.63;;;1.90;;
803;SDS011;25687;49.976;8.240;2023-12-22T12:33:29;6.33;;;1.40;;
803;SDS011;25687;49.976;8.240;2023-12-22T12:35:55;3.87;;;1.67;;
803;SDS011;25687;49.976;8.240;2023-12-22T12:41:06;4.17;;;1.33;;
803;SDS011;25687;49.976;8.240;2023-12-22T12:43:34;3.23;;;1.20;;
803;SDS011;25687;49.976;8.240;2023-12-22T12:46:04;3.80;;;1.20;;
803;SDS011;25687;49.976;8.240;2023-12-22T12:48:30;1.17;;;0.83;;
803;SDS011;25687;49.976;8.240;2023-12-22T12:51:00;2.37;;;1.20;;
803;SDS011;25687;49.976;8.240;2023-12-22T12:53:27;3.23;;;1.40;;
803;SDS011;25687;49.976;8.240;2023-12-22T12:55:55;1.43;;;0.80;;
803;SDS011;25687;49.976;8.240;2023-12-22T12:58:21;2.30;;;0.80;;
803;SDS011;25687;49.976;8.240;2023-12-22T13:00:46;2.70;;;1.20;;
803;SDS011;25687;49.976;8.240;2023-12-22T13:03:11;1.10;;;0.80;;
803;SDS011;25687;49.976;8.240;2023-12-22T13:05:37;1.10;;;0.70;;
803;SDS011;25687;49.976;8.240;2023-12-22T13:08:09;1.13;;;0.60;;
803;SDS011;25687;49.976;8.240;2023-12-22T13:10:35;0.80;;;0.80;;
803;SDS011;25687;49.976;8.240;2023-12-22T13:13:01;1.20;;;0.60;;
803;SDS011;25687;49.976;8.240;2023-12-22T13:15:26;3.67;;;1.27;;
803;SDS011;25687;49.976;8.240;2023-12-22T13:17:51;0.60;;;0.60;;
803;SDS011;25687;49.976;8.240;2023-12-22T13:20:17;0.53;;;0.50;;
803;SDS011;25687;49.976;8.240;2023-12-22T13:22:43;0.67;;;0.53;;
803;SDS011;25687;49.976;8.240;2023-12-22T13:25:09;0.60;;;0.60;;
803;SDS011;25687;49.976;8.240;2023-12-22T13:27:44;0.63;;;0.50;;
803;SDS011;25687;49.976;8.240;2023-12-22T13:30:32;0.60;;;0.50;;
803;SDS011;25687;49.976;8.240;2023-12-22T13:32:58;0.60;;;0.60;;
803;SDS011;25687;49.976;8.240;2023-12-22T13:35:23;2.20;;;0.60;;
803;SDS011;25687;49.976;8.240;2023-12-22T13:37:49;0.70;;;0.70;;
803;SDS011;25687;49.976;8.240;2023-12-22T13:40:15;0.30;;;0.30;;
803;SDS011;25687;49.976;8.240;2023-12-22T13:42:40;0.50;;;0.50;;
803;SDS011;25687;49.976;8.240;2023-12-22T13:45:10;1.33;;;0.60;;
803;SDS011;25687;49.976;8.240;2023-12-22T13:47:39;0.50;;;0.50;;
803;SDS011;25687;49.976;8.240;2023-12-22T13:50:12;0.43;;;0.40;;
803;SDS011;25687;49.976;8.240;2023-12-22T13:52:41;0.47;;;0.47;;
803;SDS011;25687;49.976;8.240;2023-12-22T13:55:12;1.73;;;0.60;;
803;SDS011;25687;49.976;8.240;2023-12-22T13:57:37;0.50;;;0.50;;
803;SDS011;25687;49.976;8.240;2023-12-22T14:00:24;0.60;;;0.60;;
803;SDS011;25687;49.976;8.240;2023-12-22T14:02:54;0.70;;;0.70;;
803;SDS011;25687;49.976;8.240;2023-12-22T14:05:20;0.40;;;0.40;;
803;SDS011;25687;49.976;8.240;2023-12-22T14:07:46;0.70;;;0.50;;
803;SDS011;25687;49.976;8.240;2023-12-22T14:10:12;0.70;;;0.70;;
803;SDS011;25687;49.976;8.240;2023-12-22T14:12:38;0.40;;;0.40;;
803;SDS011;25687;49.976;8.240;2023-12-22T14:15:13;0.60;;;0.60;;
803;SDS011;25687;49.976;8.240;2023-12-22T14:17:39;0.73;;;0.70;;
803;SDS011;25687;49.976;8.240;2023-12-22T14:20:06;0.60;;;0.60;;
803;SDS011;25687;49.976;8.240;2023-12-22T14:22:34;1.10;;;0.70;;
803;SDS011;25687;49.976;8.240;2023-12-22T14:25:03;0.73;;;0.70;;
803;SDS011;25687;49.976;8.240;2023-12-22T14:27:29;1.03;;;0.50;;
803;SDS011;25687;49.976;8.240;2023-12-22T14:29:55;0.90;;;0.73;;
803;SDS011;25687;49.976;8.240;2023-12-22T14:32:20;0.70;;;0.70;;
803;SDS011;25687;49.976;8.240;2023-12-22T14:34:46;1.10;;;0.70;;
803;SDS011;25687;49.976;8.240;2023-12-22T14:37:11;1.17;;;0.77;;
803;SDS011;25687;49.976;8.240;2023-12-22T14:39:37;0.50;;;0.50;;
803;SDS011;25687;49.976;8.240;2023-12-22T14:42:02;0.90;;;0.90;;
803;SDS011;25687;49.976;8.240;2023-12-22T14:44:30;3.00;;;0.80;;
803;SDS011;25687;49.976;8.240;2023-12-22T14:46:56;1.07;;;0.70;;
803;SDS011;25687;49.976;8.240;2023-12-22T14:49:21;0.60;;;0.60;;
803;SDS011;25687;49.976;8.240;2023-12-22T14:51:46;1.03;;;0.60;;
803;SDS011;25687;49.976;8.240;2023-12-22T14:54:16;1.17;;;0.80;;
803;SDS011;25687;49.976;8.240;2023-12-22T14:56:42;1.20;;;0.73;;
803;SDS011;25687;49.976;8.240;2023-12-22T14:59:10;0.70;;;0.70;;
803;SDS011;25687;49.976;8.240;2023-12-22T15:01:38;0.73;;;0.67;;
803;SDS011;25687;49.976;8.240;2023-12-22T15:04:04;0.60;;;0.60;;
803;SDS011;25687;49.976;8.240;2023-12-22T15:06:33;0.87;;;0.77;;
803;SDS011;25687;49.976;8.240;2023-12-22T15:08:58;0.70;;;0.70;;
803;SDS011;25687;49.976;8.240;2023-12-22T15:11:26;0.60;;;0.60;;
803;SDS011;25687;49.976;8.240;2023-12-22T15:13:51;2.47;;;0.50;;
803;SDS011;25687;49.976;8.240;2023-12-22T15:16:16;0.50;;;0.50;;
803;SDS011;25687;49.976;8.240;2023-12-22T15:18:41;0.67;;;0.50;;
803;SDS011;25687;49.976;8.240;2023-12-22T15:21:06;0.37;;;0.37;;
803;SDS011;25687;49.976;8.240;2023-12-22T15:23:32;1.70;;;0.53;;
803;SDS011;25687;49.976;8.240;2023-12-22T15:25:57;0.67;;;0.67;;